sensor_id;sensor_type;location;lat;lon;timestamp;pressure;altitude;pressure_sealevel;temperature;humidity
13476;BME280;6810;63.824;20.288;2023-05-19T11:02:03;102760.34;;;17.92;47.07
13476;BME280;6810;63.824;20.288;2023-05-19T11:04:47;102827.44;;;18.31;46.41
13476;BME280;6810;63.824;20.288;2023-05-19T11:07:18;102824.38;;;18.37;46.70
13476;BME280;6810;63.824;20.288;2023-05-19T11:09:50;102834.25;;;18.53;46.81
13476;BME280;6810;63.824;20.288;2023-05-19T11:12:22;102747.19;;;18.17;46.05
13476;BME280;6810;63.824;20.288;2023-05-19T11:14:52;102829.13;;;18.78;45.16
13476;BME280;6810;63.824;20.288;2023-05-19T11:17:20;102833.03;;;18.88;44.75
13476;BME280;6810;63.824;20.288;2023-05-19T11:19:53;102837.91;;;18.98;45.04
13476;BME280;6810;63.824;20.288;2023-05-19T11:22:24;102832.13;;;19.04;44.24
13476;BME280;6810;63.824;20.288;2023-05-19T11:24:55;102831.66;;;19.11;44.38
13476;BME280;6810;63.824;20.288;2023-05-19T11:27:32;102814.28;;;19.01;43.97
13476;BME280;6810;63.824;20.288;2023-05-19T11:32:32;102833.13;;;19.17;43.41
13476;BME280;6810;63.824;20.288;2023-05-19T11:35:01;102829.47;;;19.18;43.11
13476;BME280;6810;63.824;20.288;2023-05-19T11:37:33;102837.22;;;19.24;42.93
13476;BME280;6810;63.824;20.288;2023-05-19T11:40:01;102839.66;;;19.28;43.33
13476;BME280;6810;63.824;20.288;2023-05-19T11:42:30;102835.22;;;19.27;43.41
13476;BME280;6810;63.824;20.288;2023-05-19T11:44:58;102840.28;;;19.33;42.75
13476;BME280;6810;63.824;20.288;2023-05-19T11:47:26;102838.22;;;19.37;42.80
13476;BME280;6810;63.824;20.288;2023-05-19T11:49:54;102835.22;;;19.41;43.17
13476;BME280;6810;63.824;20.288;2023-05-19T11:52:25;102828.09;;;19.40;42.83
13476;BME280;6810;63.824;20.288;2023-05-19T11:54:59;102828.09;;;19.40;42.83
13476;BME280;6810;63.824;20.288;2023-05-19T11:57:28;102829.72;;;19.43;42.47
13476;BME280;6810;63.824;20.288;2023-05-19T11:59:55;102835.13;;;19.43;42.93
13476;BME280;6810;63.824;20.288;2023-05-19T12:02:23;102834.56;;;19.38;43.22
13476;BME280;6810;63.824;20.288;2023-05-19T12:04:52;102845.22;;;19.41;42.96
13476;BME280;6810;63.824;20.288;2023-05-19T12:07:39;102843.44;;;19.40;43.04
13476;BME280;6810;63.824;20.288;2023-05-19T12:10:27;102837.19;;;19.39;43.07
13476;BME280;6810;63.824;20.288;2023-05-19T12:13:15;102847.31;;;19.36;42.87
13476;BME280;6810;63.824;20.288;2023-05-19T12:16:03;102833.19;;;19.31;43.10
13476;BME280;6810;63.824;20.288;2023-05-19T12:18:50;102839.47;;;19.31;43.34
13476;BME280;6810;63.824;20.288;2023-05-19T12:21:37;102828.13;;;19.25;43.53
13476;BME280;6810;63.824;20.288;2023-05-19T12:24:24;102833.97;;;19.33;43.62
13476;BME280;6810;63.824;20.288;2023-05-19T12:27:16;102839.09;;;19.37;43.47
13476;BME280;6810;63.824;20.288;2023-05-19T12:30:04;102840.84;;;19.38;42.88
13476;BME280;6810;63.824;20.288;2023-05-19T12:32:52;102838.91;;;19.40;42.43
13476;BME280;6810;63.824;20.288;2023-05-19T12:35:41;102830.00;;;19.38;42.20
13476;BME280;6810;63.824;20.288;2023-05-19T12:38:28;102823.50;;;19.27;42.42
13476;BME280;6810;63.824;20.288;2023-05-19T12:41:16;102836.13;;;19.42;42.79
13476;BME280;6810;63.824;20.288;2023-05-19T12:44:13;102843.06;;;19.46;42.68
13476;BME280;6810;63.824;20.288;2023-05-19T12:47:03;102844.81;;;19.47;42.04
13476;BME280;6810;63.824;20.288;2023-05-19T12:52:48;102832.16;;;19.47;41.72
13476;BME280;6810;63.824;20.288;2023-05-19T12:55:42;102831.31;;;19.47;41.27
13476;BME280;6810;63.824;20.288;2023-05-19T12:58:32;102811.00;;;19.24;41.49
13476;BME280;6810;63.824;20.288;2023-05-19T13:01:21;102839.78;;;19.41;41.51
13476;BME280;6810;63.824;20.288;2023-05-19T13:04:08;102801.13;;;19.09;41.44
13476;BME280;6810;63.824;20.288;2023-05-19T13:06:55;102841.22;;;19.32;41.39
13476;BME280;6810;63.824;20.288;2023-05-19T13:09:42;102843.84;;;19.18;42.05
13476;BME280;6810;63.824;20.288;2023-05-19T13:12:29;102836.56;;;19.05;41.74
13476;BME280;6810;63.824;20.288;2023-05-19T13:15:16;102841.66;;;18.95;42.04
13476;BME280;6810;63.824;20.288;2023-05-19T13:18:06;102833.50;;;18.81;42.24
13476;BME280;6810;63.824;20.288;2023-05-19T13:20:53;102826.97;;;18.69;42.48
13476;BME280;6810;63.824;20.288;2023-05-19T13:23:40;102832.47;;;18.68;42.94
13476;BME280;6810;63.824;20.288;2023-05-19T13:26:27;102824.53;;;18.65;42.87
13476;BME280;6810;63.824;20.288;2023-05-19T13:29:14;102829.31;;;18.60;43.00
13476;BME280;6810;63.824;20.288;2023-05-19T13:32:01;102819.22;;;18.48;42.74
13476;BME280;6810;63.824;20.288;2023-05-19T13:34:48;102827.78;;;18.40;42.85
13476;BME280;6810;63.824;20.288;2023-05-19T13:37:36;102806.56;;;18.17;43.16
13476;BME280;6810;63.824;20.288;2023-05-19T13:40:23;102833.56;;;18.17;43.42
13476;BME280;6810;63.824;20.288;2023-05-19T13:43:10;102838.81;;;18.05;43.24
13476;BME280;6810;63.824;20.288;2023-05-19T13:45:57;102833.91;;;17.96;43.18
13476;BME280;6810;63.824;20.288;2023-05-19T13:48:55;102836.09;;;17.89;43.73
13476;BME280;6810;63.824;20.288;2023-05-19T13:51:42;102826.31;;;17.87;44.55
13476;BME280;6810;63.824;20.288;2023-05-19T13:54:29;102822.84;;;17.85;44.08
13476;BME280;6810;63.824;20.288;2023-05-19T13:57:16;102759.50;;;17.44;44.39
13476;BME280;6810;63.824;20.288;2023-05-19T14:00:04;102827.06;;;17.73;44.27
13476;BME280;6810;63.824;20.288;2023-05-19T14:03:12;102829.75;;;17.73;44.94
13476;BME280;6810;63.824;20.288;2023-05-19T14:05:59;102815.69;;;17.68;43.86
13476;BME280;6810;63.824;20.288;2023-05-19T14:08:46;102824.88;;;17.64;43.83
13476;BME280;6810;63.824;20.288;2023-05-19T14:11:33;102830.44;;;17.61;44.48
13476;BME280;6810;63.824;20.288;2023-05-19T14:14:21;102834.94;;;17.61;44.63
13476;BME280;6810;63.824;20.288;2023-05-19T14:17:08;102836.63;;;17.63;44.48
13476;BME280;6810;63.824;20.288;2023-05-19T14:19:55;102834.19;;;17.59;44.63
13476;BME280;6810;63.824;20.288;2023-05-19T14:22:42;102840.44;;;17.59;44.12
13476;BME280;6810;63.824;20.288;2023-05-19T14:25:29;102846.53;;;17.63;44.05
13476;BME280;6810;63.824;20.288;2023-05-19T14:28:16;102848.44;;;17.61;44.13
13476;BME280;6810;63.824;20.288;2023-05-19T14:31:04;102828.88;;;17.57;43.92
13476;BME280;6810;63.824;20.288;2023-05-19T14:33:52;102837.44;;;17.65;42.27
13476;BME280;6810;63.824;20.288;2023-05-19T14:36:39;102835.66;;;17.64;42.25
13476;BME280;6810;63.824;20.288;2023-05-19T14:39:26;102846.53;;;17.63;42.46
13476;BME280;6810;63.824;20.288;2023-05-19T14:42:13;102847.00;;;17.71;41.80
13476;BME280;6810;63.824;20.288;2023-05-19T14:45:00;102846.91;;;17.72;41.80
13476;BME280;6810;63.824;20.288;2023-05-19T14:47:47;102852.47;;;17.69;40.76
13476;BME280;6810;63.824;20.288;2023-05-19T14:50:34;102851.84;;;17.64;41.21
13476;BME280;6810;63.824;20.288;2023-05-19T14:53:21;102827.50;;;17.49;40.13
13476;BME280;6810;63.824;20.288;2023-05-19T14:56:08;102842.75;;;17.50;40.12
13476;BME280;6810;63.824;20.288;2023-05-19T14:58:55;102847.03;;;17.54;39.79
13476;BME280;6810;63.824;20.288;2023-05-19T15:01:43;102839.50;;;17.60;39.99
13476;BME280;6810;63.824;20.288;2023-05-19T15:04:30;102846.38;;;17.66;39.68
13476;BME280;6810;63.824;20.288;2023-05-19T15:07:17;102851.34;;;17.73;39.33
13476;BME280;6810;63.824;20.288;2023-05-19T15:10:04;102836.59;;;17.80;38.95
13476;BME280;6810;63.824;20.288;2023-05-19T15:12:52;102822.13;;;17.81;39.55
13476;BME280;6810;63.824;20.288;2023-05-19T15:15:39;102802.28;;;17.67;38.69
13476;BME280;6810;63.824;20.288;2023-05-19T15:18:43;102817.53;;;17.83;38.68
13476;BME280;6810;63.824;20.288;2023-05-19T15:21:30;102831.44;;;17.91;39.18
13476;BME280;6810;63.824;20.288;2023-05-19T15:24:17;102823.28;;;17.93;38.66
13476;BME280;6810;63.824;20.288;2023-05-19T15:27:04;102832.78;;;18.00;38.79
13476;BME280;6810;63.824;20.288;2023-05-19T15:29:51;102825.56;;;18.16;39.49
13476;BME280;6810;63.824;20.288;2023-05-19T15:32:39;102838.59;;;18.40;39.02
13476;BME280;6810;63.824;20.288;2023-05-19T15:35:26;102822.00;;;18.62;38.15
13476;BME280;6810;63.824;20.288;2023-05-19T15:38:13;102833.47;;;18.97;38.35
13476;BME280;6810;63.824;20.288;2023-05-19T15:41:04;102829.38;;;19.19;37.88
13476;BME280;6810;63.824;20.288;2023-05-19T15:43:52;102807.03;;;19.45;37.66
13476;BME280;6810;63.824;20.288;2023-05-19T15:46:39;102825.97;;;20.01;36.98
13476;BME280;6810;63.824;20.288;2023-05-19T15:49:26;102827.31;;;20.36;36.26
13476;BME280;6810;63.824;20.288;2023-05-19T15:52:13;102833.44;;;20.79;36.00
13476;BME280;6810;63.824;20.288;2023-05-19T15:55:00;102828.06;;;21.18;35.64
13476;BME280;6810;63.824;20.288;2023-05-19T15:57:47;102821.56;;;21.58;35.19
13476;BME280;6810;63.824;20.288;2023-05-19T16:00:34;102816.19;;;21.83;34.25
13476;BME280;6810;63.824;20.288;2023-05-19T16:03:21;102823.53;;;21.94;34.24
13476;BME280;6810;63.824;20.288;2023-05-19T16:06:09;102819.28;;;22.02;34.08
13476;BME280;6810;63.824;20.288;2023-05-19T16:08:56;102811.66;;;22.07;33.56
13476;BME280;6810;63.824;20.288;2023-05-19T16:11:43;102814.38;;;22.07;33.27
13476;BME280;6810;63.824;20.288;2023-05-19T16:14:30;102821.88;;;22.04;33.19
13476;BME280;6810;63.824;20.288;2023-05-19T16:17:17;102814.22;;;21.85;33.71
13476;BME280;6810;63.824;20.288;2023-05-19T16:20:05;102818.09;;;21.69;33.83
13476;BME280;6810;63.824;20.288;2023-05-19T16:22:52;102795.75;;;21.40;33.67
13476;BME280;6810;63.824;20.288;2023-05-19T16:25:39;102825.03;;;21.35;34.39
13476;BME280;6810;63.824;20.288;2023-05-19T16:28:26;102812.22;;;21.25;34.63
13476;BME280;6810;63.824;20.288;2023-05-19T16:31:13;102830.38;;;21.24;34.43
13476;BME280;6810;63.824;20.288;2023-05-19T16:34:00;102827.63;;;21.12;34.41
13476;BME280;6810;63.824;20.288;2023-05-19T16:36:47;102831.50;;;21.08;34.40
13476;BME280;6810;63.824;20.288;2023-05-19T16:39:35;102808.75;;;20.84;34.64
13476;BME280;6810;63.824;20.288;2023-05-19T16:42:22;102829.97;;;20.77;34.98
13476;BME280;6810;63.824;20.288;2023-05-19T16:45:09;102835.38;;;20.65;34.79
13476;BME280;6810;63.824;20.288;2023-05-19T16:47:56;102819.88;;;20.52;35.37
13476;BME280;6810;63.824;20.288;2023-05-19T16:50:46;102820.72;;;20.40;35.48
13476;BME280;6810;63.824;20.288;2023-05-19T16:53:33;102838.03;;;20.38;35.38
13476;BME280;6810;63.824;20.288;2023-05-19T16:56:20;102842.25;;;20.29;35.67
13476;BME280;6810;63.824;20.288;2023-05-19T16:59:08;102835.38;;;20.24;36.13
13476;BME280;6810;63.824;20.288;2023-05-19T17:01:55;102837.38;;;20.20;36.25
13476;BME280;6810;63.824;20.288;2023-05-19T17:04:42;102835.19;;;20.13;36.31
13476;BME280;6810;63.824;20.288;2023-05-19T17:07:29;102842.91;;;20.05;36.69
13476;BME280;6810;63.824;20.288;2023-05-19T17:10:17;102845.53;;;20.06;37.22
13476;BME280;6810;63.824;20.288;2023-05-19T17:13:04;102848.03;;;20.09;37.64
13476;BME280;6810;63.824;20.288;2023-05-19T17:15:51;102839.22;;;20.06;37.69
13476;BME280;6810;63.824;20.288;2023-05-19T17:18:38;102845.91;;;20.00;38.12
13476;BME280;6810;63.824;20.288;2023-05-19T17:21:25;102840.13;;;19.92;37.93
13476;BME280;6810;63.824;20.288;2023-05-19T17:24:12;102839.91;;;19.81;38.52
13476;BME280;6810;63.824;20.288;2023-05-19T17:26:59;102800.38;;;19.51;38.85
13476;BME280;6810;63.824;20.288;2023-05-19T17:29:47;102846.09;;;19.69;39.24
13476;BME280;6810;63.824;20.288;2023-05-19T17:32:34;102820.84;;;19.55;39.47
13476;BME280;6810;63.824;20.288;2023-05-19T17:35:21;102845.13;;;19.70;39.76
13476;BME280;6810;63.824;20.288;2023-05-19T17:38:08;102835.97;;;19.73;39.33
13476;BME280;6810;63.824;20.288;2023-05-19T17:41:01;102840.41;;;19.74;39.60
13476;BME280;6810;63.824;20.288;2023-05-19T17:43:49;102842.59;;;19.67;39.58
13476;BME280;6810;63.824;20.288;2023-05-19T17:46:36;102846.50;;;19.63;39.43
13476;BME280;6810;63.824;20.288;2023-05-19T17:49:23;102836.78;;;19.31;39.88
13476;BME280;6810;63.824;20.288;2023-05-19T17:52:11;102860.25;;;19.31;40.44
13476;BME280;6810;63.824;20.288;2023-05-19T17:54:58;102860.94;;;19.19;40.53
13476;BME280;6810;63.824;20.288;2023-05-19T17:57:46;102818.28;;;18.94;40.36
13476;BME280;6810;63.824;20.288;2023-05-19T18:00:34;102856.38;;;19.05;40.49
13476;BME280;6810;63.824;20.288;2023-05-19T18:03:21;102857.28;;;18.90;40.65
13476;BME280;6810;63.824;20.288;2023-05-19T18:06:09;102854.25;;;18.65;40.48
13476;BME280;6810;63.824;20.288;2023-05-19T18:08:59;102856.47;;;18.43;41.05
13476;BME280;6810;63.824;20.288;2023-05-19T18:11:46;102860.31;;;18.22;41.80
13476;BME280;6810;63.824;20.288;2023-05-19T18:14:33;102866.16;;;17.99;42.19
13476;BME280;6810;63.824;20.288;2023-05-19T18:17:20;102864.53;;;17.62;42.96
13476;BME280;6810;63.824;20.288;2023-05-19T18:20:08;102864.16;;;17.36;43.38
13476;BME280;6810;63.824;20.288;2023-05-19T18:22:55;102804.31;;;16.78;43.50
13476;BME280;6810;63.824;20.288;2023-05-19T18:25:49;102866.84;;;17.01;43.67
13476;BME280;6810;63.824;20.288;2023-05-19T18:28:37;102798.69;;;16.47;44.34
13476;BME280;6810;63.824;20.288;2023-05-19T18:31:25;102860.53;;;16.67;44.83
13476;BME280;6810;63.824;20.288;2023-05-19T18:34:12;102876.56;;;16.51;45.13
13476;BME280;6810;63.824;20.288;2023-05-19T18:36:59;102870.84;;;16.39;45.72
13476;BME280;6810;63.824;20.288;2023-05-19T18:39:46;102878.84;;;16.22;45.44
13476;BME280;6810;63.824;20.288;2023-05-19T18:42:33;102880.16;;;16.13;45.96
13476;BME280;6810;63.824;20.288;2023-05-19T18:45:20;102890.78;;;15.98;46.55
13476;BME280;6810;63.824;20.288;2023-05-19T18:48:07;102895.03;;;15.83;46.56
13476;BME280;6810;63.824;20.288;2023-05-19T18:50:54;102908.16;;;15.71;46.68
13476;BME280;6810;63.824;20.288;2023-05-19T18:53:41;102907.00;;;15.56;47.59
13476;BME280;6810;63.824;20.288;2023-05-19T18:56:29;102903.34;;;15.38;47.47
13476;BME280;6810;63.824;20.288;2023-05-19T18:59:16;102903.28;;;15.18;47.78
13476;BME280;6810;63.824;20.288;2023-05-19T19:02:03;102910.41;;;14.98;47.80
13476;BME280;6810;63.824;20.288;2023-05-19T19:04:50;102897.28;;;14.69;48.50
13476;BME280;6810;63.824;20.288;2023-05-19T19:07:41;102914.09;;;14.52;49.13
13476;BME280;6810;63.824;20.288;2023-05-19T19:10:29;102907.66;;;14.35;49.33
13476;BME280;6810;63.824;20.288;2023-05-19T19:13:16;102914.44;;;14.20;50.07
13476;BME280;6810;63.824;20.288;2023-05-19T19:16:04;102911.31;;;14.08;49.86
13476;BME280;6810;63.824;20.288;2023-05-19T19:18:52;102914.69;;;13.89;50.36
13476;BME280;6810;63.824;20.288;2023-05-19T19:21:39;102922.59;;;13.69;50.38
13476;BME280;6810;63.824;20.288;2023-05-19T19:24:26;102924.13;;;13.52;51.90
13476;BME280;6810;63.824;20.288;2023-05-19T19:27:13;102922.78;;;13.39;51.97
13476;BME280;6810;63.824;20.288;2023-05-19T19:30:04;102924.94;;;13.29;52.56
13476;BME280;6810;63.824;20.288;2023-05-19T19:32:51;102922.63;;;13.19;52.17
13476;BME280;6810;63.824;20.288;2023-05-19T19:35:38;102918.81;;;13.00;53.35
13476;BME280;6810;63.824;20.288;2023-05-19T19:38:26;102901.09;;;12.68;53.95
13476;BME280;6810;63.824;20.288;2023-05-19T19:41:13;102925.22;;;12.67;53.33
13476;BME280;6810;63.824;20.288;2023-05-19T19:44:00;102933.44;;;12.61;53.94
13476;BME280;6810;63.824;20.288;2023-05-19T19:46:47;102926.47;;;12.55;53.76
13476;BME280;6810;63.824;20.288;2023-05-19T19:49:34;102931.16;;;12.47;54.70
13476;BME280;6810;63.824;20.288;2023-05-19T19:52:21;102921.69;;;12.37;54.91
13476;BME280;6810;63.824;20.288;2023-05-19T19:55:08;102934.41;;;12.29;55.59
13476;BME280;6810;63.824;20.288;2023-05-19T19:57:55;102933.66;;;12.26;55.63
13476;BME280;6810;63.824;20.288;2023-05-19T20:00:42;102932.91;;;12.20;55.12
13476;BME280;6810;63.824;20.288;2023-05-19T20:03:29;102938.38;;;12.16;56.12
13476;BME280;6810;63.824;20.288;2023-05-19T20:06:17;102922.88;;;11.98;55.34
13476;BME280;6810;63.824;20.288;2023-05-19T20:09:04;102943.38;;;11.97;56.35
13476;BME280;6810;63.824;20.288;2023-05-19T20:11:51;102944.41;;;11.93;56.22
13476;BME280;6810;63.824;20.288;2023-05-19T20:14:38;102942.66;;;11.91;56.18
13476;BME280;6810;63.824;20.288;2023-05-19T20:17:25;102950.91;;;11.83;56.60
13476;BME280;6810;63.824;20.288;2023-05-19T20:20:12;102956.50;;;11.74;57.13
13476;BME280;6810;63.824;20.288;2023-05-19T20:23:00;102949.63;;;11.66;57.38
13476;BME280;6810;63.824;20.288;2023-05-19T20:25:47;102963.94;;;11.63;56.76
13476;BME280;6810;63.824;20.288;2023-05-19T20:28:38;102959.56;;;11.59;56.83
13476;BME280;6810;63.824;20.288;2023-05-19T20:31:05;102958.75;;;11.56;57.31
13476;BME280;6810;63.824;20.288;2023-05-19T20:33:53;102955.25;;;11.54;57.18
13476;BME280;6810;63.824;20.288;2023-05-19T20:36:40;102953.56;;;11.50;58.43
13476;BME280;6810;63.824;20.288;2023-05-19T20:39:27;102958.22;;;11.42;58.59
13476;BME280;6810;63.824;20.288;2023-05-19T20:42:14;102951.44;;;11.30;58.52
13476;BME280;6810;63.824;20.288;2023-05-19T20:45:01;102950.84;;;11.18;58.62
13476;BME280;6810;63.824;20.288;2023-05-19T20:47:48;102948.41;;;11.09;59.47
13476;BME280;6810;63.824;20.288;2023-05-19T20:50:37;102956.59;;;11.03;59.44
13476;BME280;6810;63.824;20.288;2023-05-19T20:53:25;102916.50;;;10.69;59.33
13476;BME280;6810;63.824;20.288;2023-05-19T20:56:12;102965.06;;;10.83;60.24
13476;BME280;6810;63.824;20.288;2023-05-19T20:58:59;102968.66;;;10.81;59.72
13476;BME280;6810;63.824;20.288;2023-05-19T21:01:46;102961.59;;;10.80;60.87
13476;BME280;6810;63.824;20.288;2023-05-19T21:04:33;102967.84;;;10.79;60.13
13476;BME280;6810;63.824;20.288;2023-05-19T21:07:20;102967.03;;;10.75;59.98
13476;BME280;6810;63.824;20.288;2023-05-19T21:10:08;102977.78;;;10.72;60.20
13476;BME280;6810;63.824;20.288;2023-05-19T21:12:55;102976.94;;;10.69;61.19
13476;BME280;6810;63.824;20.288;2023-05-19T21:15:42;102974.41;;;10.63;60.45
13476;BME280;6810;63.824;20.288;2023-05-19T21:18:29;102975.31;;;10.63;60.94
13476;BME280;6810;63.824;20.288;2023-05-19T21:21:16;102934.13;;;10.36;61.49
13476;BME280;6810;63.824;20.288;2023-05-19T21:24:03;102973.72;;;10.54;60.90
13476;BME280;6810;63.824;20.288;2023-05-19T21:26:50;102970.31;;;10.48;61.56
13476;BME280;6810;63.824;20.288;2023-05-19T21:29:37;102981.03;;;10.46;61.40
13476;BME280;6810;63.824;20.288;2023-05-19T21:32:24;102976.66;;;10.42;61.38
13476;BME280;6810;63.824;20.288;2023-05-19T21:35:11;102977.59;;;10.40;61.82
13476;BME280;6810;63.824;20.288;2023-05-19T21:37:59;102979.47;;;10.35;61.45
13476;BME280;6810;63.824;20.288;2023-05-19T21:40:51;102975.28;;;10.23;62.84
13476;BME280;6810;63.824;20.288;2023-05-19T21:43:38;102976.28;;;10.18;62.25
13476;BME280;6810;63.824;20.288;2023-05-19T21:46:40;102974.56;;;10.15;62.49
13476;BME280;6810;63.824;20.288;2023-05-19T21:49:27;102975.63;;;10.08;63.37
13476;BME280;6810;63.824;20.288;2023-05-19T21:52:14;102977.47;;;10.02;63.13
13476;BME280;6810;63.824;20.288;2023-05-19T21:55:01;102982.00;;;9.97;63.84
13476;BME280;6810;63.824;20.288;2023-05-19T21:57:48;102964.53;;;9.84;63.48
13476;BME280;6810;63.824;20.288;2023-05-19T22:00:35;102981.28;;;9.89;63.51
13476;BME280;6810;63.824;20.288;2023-05-19T22:03:23;102978.59;;;9.89;63.66
13476;BME280;6810;63.824;20.288;2023-05-19T22:06:10;102977.72;;;9.90;63.39
13476;BME280;6810;63.824;20.288;2023-05-19T22:08:57;102974.16;;;9.89;63.54
13476;BME280;6810;63.824;20.288;2023-05-19T22:11:44;102971.56;;;9.86;63.90
13476;BME280;6810;63.824;20.288;2023-05-19T22:14:31;102977.78;;;9.87;64.66
13476;BME280;6810;63.824;20.288;2023-05-19T22:17:18;102983.09;;;9.88;64.62
13476;BME280;6810;63.824;20.288;2023-05-19T22:20:05;102977.72;;;9.90;63.69
13476;BME280;6810;63.824;20.288;2023-05-19T22:22:52;102961.84;;;9.84;63.84
13476;BME280;6810;63.824;20.288;2023-05-19T22:25:40;102975.94;;;9.89;64.56
13476;BME280;6810;63.824;20.288;2023-05-19T22:28:07;102973.34;;;9.86;64.73
13476;BME280;6810;63.824;20.288;2023-05-19T22:30:34;102973.38;;;9.84;64.73
13476;BME280;6810;63.824;20.288;2023-05-19T22:33:07;102978.69;;;9.84;64.63
13476;BME280;6810;63.824;20.288;2023-05-19T22:35:34;102976.06;;;9.83;64.44
13476;BME280;6810;63.824;20.288;2023-05-19T22:38:01;102973.44;;;9.81;65.25
13476;BME280;6810;63.824;20.288;2023-05-19T22:40:29;102955.94;;;9.68;65.37
13476;BME280;6810;63.824;20.288;2023-05-19T22:42:56;102978.84;;;9.77;65.09
13476;BME280;6810;63.824;20.288;2023-05-19T22:45:23;102967.47;;;9.69;65.62
13476;BME280;6810;63.824;20.288;2023-05-19T22:47:51;102979.72;;;9.77;64.88
13476;BME280;6810;63.824;20.288;2023-05-19T22:50:18;102973.53;;;9.77;64.98
13476;BME280;6810;63.824;20.288;2023-05-19T22:52:46;102959.44;;;9.72;65.35
13476;BME280;6810;63.824;20.288;2023-05-19T22:55:13;102973.63;;;9.71;64.95
13476;BME280;6810;63.824;20.288;2023-05-19T22:57:40;102967.47;;;9.69;65.57
13476;BME280;6810;63.824;20.288;2023-05-19T23:00:07;102969.28;;;9.67;65.33
13476;BME280;6810;63.824;20.288;2023-05-19T23:02:35;102971.97;;;9.65;65.76
13476;BME280;6810;63.824;20.288;2023-05-19T23:05:02;102967.59;;;9.63;65.45
13476;BME280;6810;63.824;20.288;2023-05-19T23:07:30;102969.38;;;9.62;66.34
13476;BME280;6810;63.824;20.288;2023-05-19T23:09:57;102955.25;;;9.57;65.38
13476;BME280;6810;63.824;20.288;2023-05-19T23:12:24;102955.19;;;9.60;65.71
13476;BME280;6810;63.824;20.288;2023-05-19T23:15:11;102965.72;;;9.66;66.15
13476;BME280;6810;63.824;20.288;2023-05-19T23:17:58;102963.13;;;9.63;65.43
13476;BME280;6810;63.824;20.288;2023-05-19T23:20:45;102963.16;;;9.62;66.21
13476;BME280;6810;63.824;20.288;2023-05-19T23:23:32;102944.66;;;9.54;65.24
13476;BME280;6810;63.824;20.288;2023-05-19T23:26:20;102945.53;;;9.56;65.85
13476;BME280;6810;63.824;20.288;2023-05-19T23:29:12;102963.16;;;9.62;65.57
13476;BME280;6810;63.824;20.288;2023-05-19T23:31:59;102964.94;;;9.63;66.03
13476;BME280;6810;63.824;20.288;2023-05-19T23:34:46;102960.50;;;9.62;65.37
13476;BME280;6810;63.824;20.288;2023-05-19T23:37:34;102959.63;;;9.60;65.90
13476;BME280;6810;63.824;20.288;2023-05-19T23:40:21;102964.97;;;9.58;65.55
13476;BME280;6810;63.824;20.288;2023-05-19T23:43:08;102962.28;;;9.60;65.75
13476;BME280;6810;63.824;20.288;2023-05-19T23:45:55;102940.31;;;9.50;66.31
13476;BME280;6810;63.824;20.288;2023-05-19T23:48:43;102952.66;;;9.54;65.69
13476;BME280;6810;63.824;20.288;2023-05-19T23:51:30;102956.16;;;9.56;65.97
13476;BME280;6810;63.824;20.288;2023-05-19T23:54:18;102960.63;;;9.54;65.94
13476;BME280;6810;63.824;20.288;2023-05-19T23:57:06;102921.91;;;9.38;65.98
13476;BME280;6810;63.824;20.288;2023-05-19T23:59:53;102946.47;;;9.52;66.25
